sensor_id;sensor_type;location;lat;lon;timestamp;P1;durP1;ratioP1;P2;durP2;ratioP2
48516;SDS011;34310;51.904;4.256;2022-10-26T00:01:06;4.75;;;1.92;;
48516;SDS011;34310;51.904;4.256;2022-10-26T00:03:39;3.03;;;1.83;;
48516;SDS011;34310;51.904;4.256;2022-10-26T00:06:09;3.70;;;1.85;;
48516;SDS011;34310;51.904;4.256;2022-10-26T00:08:38;4.47;;;2.15;;
48516;SDS011;34310;51.904;4.256;2022-10-26T00:11:05;3.97;;;2.00;;
48516;SDS011;34310;51.904;4.256;2022-10-26T00:13:33;6.88;;;2.40;;
48516;SDS011;34310;51.904;4.256;2022-10-26T00:16:06;3.25;;;1.92;;
48516;SDS011;34310;51.904;4.256;2022-10-26T00:18:38;4.95;;;2.00;;
48516;SDS011;34310;51.904;4.256;2022-10-26T00:21:06;5.82;;;2.47;;
48516;SDS011;34310;51.904;4.256;2022-10-26T00:23:34;2.83;;;2.05;;
48516;SDS011;34310;51.904;4.256;2022-10-26T00:26:02;3.83;;;2.50;;
48516;SDS011;34310;51.904;4.256;2022-10-26T00:28:30;3.63;;;2.33;;
48516;SDS011;34310;51.904;4.256;2022-10-26T00:31:01;3.08;;;2.40;;
48516;SDS011;34310;51.904;4.256;2022-10-26T00:33:30;4.57;;;2.28;;
48516;SDS011;34310;51.904;4.256;2022-10-26T00:35:58;7.57;;;2.72;;
48516;SDS011;34310;51.904;4.256;2022-10-26T00:38:25;4.88;;;2.55;;
48516;SDS011;34310;51.904;4.256;2022-10-26T00:40:52;3.42;;;2.17;;
48516;SDS011;34310;51.904;4.256;2022-10-26T00:45:48;4.40;;;2.60;;
48516;SDS011;34310;51.904;4.256;2022-10-26T00:48:21;3.75;;;2.67;;
48516;SDS011;34310;51.904;4.256;2022-10-26T00:50:51;3.97;;;2.42;;
48516;SDS011;34310;51.904;4.256;2022-10-26T00:53:21;6.55;;;2.22;;
48516;SDS011;34310;51.904;4.256;2022-10-26T00:55:49;2.75;;;2.30;;
48516;SDS011;34310;51.904;4.256;2022-10-26T00:58:19;4.40;;;2.50;;
48516;SDS011;34310;51.904;4.256;2022-10-26T01:00:48;2.70;;;2.17;;
48516;SDS011;34310;51.904;4.256;2022-10-26T01:03:16;3.72;;;2.47;;
48516;SDS011;34310;51.904;4.256;2022-10-26T01:05:45;4.28;;;2.72;;
48516;SDS011;34310;51.904;4.256;2022-10-26T01:08:14;3.05;;;2.28;;
48516;SDS011;34310;51.904;4.256;2022-10-26T01:10:43;4.20;;;2.90;;
48516;SDS011;34310;51.904;4.256;2022-10-26T01:13:10;4.65;;;2.30;;
48516;SDS011;34310;51.904;4.256;2022-10-26T01:21:13;3.95;;;2.50;;
48516;SDS011;34310;51.904;4.256;2022-10-26T01:24:01;3.67;;;2.72;;
48516;SDS011;34310;51.904;4.256;2022-10-26T01:32:42;6.45;;;2.75;;
48516;SDS011;34310;51.904;4.256;2022-10-26T01:35:34;3.70;;;2.78;;
48516;SDS011;34310;51.904;4.256;2022-10-26T01:40:58;4.22;;;2.92;;
48516;SDS011;34310;51.904;4.256;2022-10-26T01:43:31;5.10;;;3.03;;
48516;SDS011;34310;51.904;4.256;2022-10-26T01:46:05;4.97;;;2.95;;
48516;SDS011;34310;51.904;4.256;2022-10-26T01:48:35;3.47;;;2.70;;
48516;SDS011;34310;51.904;4.256;2022-10-26T01:51:05;3.92;;;2.88;;
48516;SDS011;34310;51.904;4.256;2022-10-26T01:53:34;3.92;;;2.95;;
48516;SDS011;34310;51.904;4.256;2022-10-26T01:56:08;4.90;;;3.00;;
48516;SDS011;34310;51.904;4.256;2022-10-26T01:58:55;3.72;;;3.00;;
48516;SDS011;34310;51.904;4.256;2022-10-26T02:04:10;4.03;;;2.90;;
48516;SDS011;34310;51.904;4.256;2022-10-26T02:07:02;5.35;;;3.10;;
48516;SDS011;34310;51.904;4.256;2022-10-26T02:10:04;4.07;;;3.15;;
48516;SDS011;34310;51.904;4.256;2022-10-26T02:15:45;4.57;;;3.05;;
48516;SDS011;34310;51.904;4.256;2022-10-26T02:18:26;4.38;;;3.00;;
48516;SDS011;34310;51.904;4.256;2022-10-26T02:21:04;4.13;;;3.10;;
48516;SDS011;34310;51.904;4.256;2022-10-26T02:23:36;6.32;;;2.90;;
48516;SDS011;34310;51.904;4.256;2022-10-26T02:26:07;4.82;;;3.28;;
48516;SDS011;34310;51.904;4.256;2022-10-26T02:28:39;4.22;;;2.90;;
48516;SDS011;34310;51.904;4.256;2022-10-26T02:31:10;4.30;;;2.78;;
48516;SDS011;34310;51.904;4.256;2022-10-26T02:33:40;4.20;;;2.88;;
48516;SDS011;34310;51.904;4.256;2022-10-26T02:36:12;4.57;;;2.70;;
48516;SDS011;34310;51.904;4.256;2022-10-26T02:38:43;4.15;;;2.70;;
48516;SDS011;34310;51.904;4.256;2022-10-26T02:41:13;4.00;;;2.90;;
48516;SDS011;34310;51.904;4.256;2022-10-26T02:43:44;4.15;;;2.88;;
48516;SDS011;34310;51.904;4.256;2022-10-26T02:46:19;4.07;;;2.80;;
48516;SDS011;34310;51.904;4.256;2022-10-26T02:48:51;4.00;;;2.80;;
48516;SDS011;34310;51.904;4.256;2022-10-26T02:51:39;3.70;;;2.97;;
48516;SDS011;34310;51.904;4.256;2022-10-26T02:57:37;3.92;;;2.88;;
48516;SDS011;34310;51.904;4.256;2022-10-26T03:00:06;4.45;;;3.10;;
48516;SDS011;34310;51.904;4.256;2022-10-26T03:02:41;5.18;;;2.90;;
48516;SDS011;34310;51.904;4.256;2022-10-26T03:07:45;4.13;;;2.80;;
48516;SDS011;34310;51.904;4.256;2022-10-26T03:10:12;3.25;;;2.88;;
48516;SDS011;34310;51.904;4.256;2022-10-26T03:12:40;3.92;;;2.60;;
48516;SDS011;34310;51.904;4.256;2022-10-26T03:15:07;4.10;;;2.60;;
48516;SDS011;34310;51.904;4.256;2022-10-26T03:17:35;3.05;;;2.60;;
48516;SDS011;34310;51.904;4.256;2022-10-26T03:20:02;3.47;;;2.95;;
48516;SDS011;34310;51.904;4.256;2022-10-26T03:22:30;4.03;;;2.90;;
48516;SDS011;34310;51.904;4.256;2022-10-26T03:24:57;5.53;;;2.72;;
48516;SDS011;34310;51.904;4.256;2022-10-26T03:27:25;4.13;;;2.47;;
48516;SDS011;34310;51.904;4.256;2022-10-26T03:29:52;3.33;;;2.70;;
48516;SDS011;34310;51.904;4.256;2022-10-26T03:32:19;2.75;;;2.35;;
48516;SDS011;34310;51.904;4.256;2022-10-26T03:34:47;3.90;;;2.60;;
48516;SDS011;34310;51.904;4.256;2022-10-26T03:37:14;3.45;;;2.55;;
48516;SDS011;34310;51.904;4.256;2022-10-26T03:39:41;4.20;;;2.90;;
48516;SDS011;34310;51.904;4.256;2022-10-26T03:42:08;3.83;;;2.70;;
48516;SDS011;34310;51.904;4.256;2022-10-26T03:44:35;3.00;;;2.05;;
48516;SDS011;34310;51.904;4.256;2022-10-26T03:47:03;4.05;;;2.67;;
48516;SDS011;34310;51.904;4.256;2022-10-26T03:49:30;4.15;;;2.42;;
48516;SDS011;34310;51.904;4.256;2022-10-26T03:51:57;4.03;;;2.60;;
48516;SDS011;34310;51.904;4.256;2022-10-26T03:54:24;3.50;;;2.28;;
48516;SDS011;34310;51.904;4.256;2022-10-26T03:56:52;3.47;;;2.55;;
48516;SDS011;34310;51.904;4.256;2022-10-26T03:59:20;3.90;;;2.47;;
48516;SDS011;34310;51.904;4.256;2022-10-26T04:01:47;4.72;;;2.50;;
48516;SDS011;34310;51.904;4.256;2022-10-26T04:04:20;3.22;;;2.20;;
48516;SDS011;34310;51.904;4.256;2022-10-26T04:06:47;3.90;;;2.30;;
48516;SDS011;34310;51.904;4.256;2022-10-26T04:09:15;2.55;;;2.25;;
48516;SDS011;34310;51.904;4.256;2022-10-26T04:11:42;3.70;;;2.00;;
48516;SDS011;34310;51.904;4.256;2022-10-26T04:14:09;3.20;;;2.40;;
48516;SDS011;34310;51.904;4.256;2022-10-26T04:16:36;3.45;;;1.95;;
48516;SDS011;34310;51.904;4.256;2022-10-26T04:19:04;2.45;;;2.13;;
48516;SDS011;34310;51.904;4.256;2022-10-26T04:21:31;4.88;;;2.10;;
48516;SDS011;34310;51.904;4.256;2022-10-26T04:23:58;2.60;;;1.80;;
48516;SDS011;34310;51.904;4.256;2022-10-26T04:26:26;3.17;;;2.05;;
48516;SDS011;34310;51.904;4.256;2022-10-26T04:28:53;4.00;;;2.20;;
48516;SDS011;34310;51.904;4.256;2022-10-26T04:31:20;2.03;;;1.90;;
48516;SDS011;34310;51.904;4.256;2022-10-26T04:33:48;2.67;;;2.10;;
48516;SDS011;34310;51.904;4.256;2022-10-26T04:36:15;2.05;;;1.80;;
48516;SDS011;34310;51.904;4.256;2022-10-26T04:38:42;2.83;;;1.90;;
48516;SDS011;34310;51.904;4.256;2022-10-26T04:41:09;3.67;;;2.08;;
48516;SDS011;34310;51.904;4.256;2022-10-26T04:43:37;2.05;;;1.83;;
48516;SDS011;34310;51.904;4.256;2022-10-26T04:46:04;2.80;;;1.88;;
48516;SDS011;34310;51.904;4.256;2022-10-26T04:48:31;3.05;;;2.10;;
48516;SDS011;34310;51.904;4.256;2022-10-26T04:50:59;3.30;;;1.75;;
48516;SDS011;34310;51.904;4.256;2022-10-26T04:53:26;2.30;;;1.60;;
48516;SDS011;34310;51.904;4.256;2022-10-26T04:55:57;2.15;;;1.77;;
48516;SDS011;34310;51.904;4.256;2022-10-26T04:58:28;2.17;;;1.77;;
48516;SDS011;34310;51.904;4.256;2022-10-26T05:00:56;1.88;;;1.73;;
48516;SDS011;34310;51.904;4.256;2022-10-26T05:03:23;2.08;;;1.88;;
48516;SDS011;34310;51.904;4.256;2022-10-26T05:05:50;2.40;;;1.80;;
48516;SDS011;34310;51.904;4.256;2022-10-26T05:08:18;2.60;;;1.67;;
48516;SDS011;34310;51.904;4.256;2022-10-26T05:10:48;3.05;;;1.88;;
48516;SDS011;34310;51.904;4.256;2022-10-26T05:13:16;2.53;;;1.75;;
48516;SDS011;34310;51.904;4.256;2022-10-26T05:15:43;3.42;;;1.85;;
48516;SDS011;34310;51.904;4.256;2022-10-26T05:18:10;3.70;;;1.83;;
48516;SDS011;34310;51.904;4.256;2022-10-26T05:20:38;2.05;;;1.60;;
48516;SDS011;34310;51.904;4.256;2022-10-26T05:23:06;2.65;;;1.88;;
48516;SDS011;34310;51.904;4.256;2022-10-26T05:25:35;2.88;;;1.83;;
48516;SDS011;34310;51.904;4.256;2022-10-26T05:28:04;4.18;;;1.92;;
48516;SDS011;34310;51.904;4.256;2022-10-26T05:30:34;2.80;;;1.60;;
48516;SDS011;34310;51.904;4.256;2022-10-26T05:33:03;2.08;;;1.58;;
48516;SDS011;34310;51.904;4.256;2022-10-26T05:35:31;2.35;;;1.52;;
48516;SDS011;34310;51.904;4.256;2022-10-26T05:37:58;3.40;;;1.70;;
48516;SDS011;34310;51.904;4.256;2022-10-26T05:40:31;3.28;;;1.80;;
48516;SDS011;34310;51.904;4.256;2022-10-26T05:43:02;3.13;;;1.90;;
48516;SDS011;34310;51.904;4.256;2022-10-26T05:45:29;3.22;;;2.03;;
48516;SDS011;34310;51.904;4.256;2022-10-26T05:47:57;4.22;;;1.80;;
48516;SDS011;34310;51.904;4.256;2022-10-26T05:50:28;2.60;;;1.83;;
48516;SDS011;34310;51.904;4.256;2022-10-26T05:52:55;2.53;;;1.65;;
48516;SDS011;34310;51.904;4.256;2022-10-26T05:55:22;2.00;;;1.40;;
48516;SDS011;34310;51.904;4.256;2022-10-26T05:57:50;3.50;;;1.60;;
48516;SDS011;34310;51.904;4.256;2022-10-26T06:00:19;2.90;;;1.90;;
48516;SDS011;34310;51.904;4.256;2022-10-26T06:05:36;2.70;;;1.85;;
48516;SDS011;34310;51.904;4.256;2022-10-26T06:08:16;2.60;;;1.80;;
48516;SDS011;34310;51.904;4.256;2022-10-26T06:10:44;3.42;;;1.70;;
48516;SDS011;34310;51.904;4.256;2022-10-26T06:13:12;3.22;;;1.80;;
48516;SDS011;34310;51.904;4.256;2022-10-26T06:15:44;2.05;;;1.60;;
48516;SDS011;34310;51.904;4.256;2022-10-26T06:18:25;2.42;;;1.70;;
48516;SDS011;34310;51.904;4.256;2022-10-26T06:26:39;4.60;;;2.08;;
48516;SDS011;34310;51.904;4.256;2022-10-26T06:31:55;1.98;;;1.70;;
48516;SDS011;34310;51.904;4.256;2022-10-26T06:34:24;2.30;;;1.58;;
48516;SDS011;34310;51.904;4.256;2022-10-26T06:36:55;4.85;;;1.88;;
48516;SDS011;34310;51.904;4.256;2022-10-26T06:39:24;1.80;;;1.50;;
48516;SDS011;34310;51.904;4.256;2022-10-26T06:41:55;5.20;;;1.98;;
48516;SDS011;34310;51.904;4.256;2022-10-26T06:44:23;5.53;;;1.90;;
48516;SDS011;34310;51.904;4.256;2022-10-26T06:50:24;5.78;;;2.00;;
48516;SDS011;34310;51.904;4.256;2022-10-26T06:53:02;3.55;;;1.60;;
48516;SDS011;34310;51.904;4.256;2022-10-26T06:55:51;5.78;;;1.90;;
48516;SDS011;34310;51.904;4.256;2022-10-26T06:58:20;5.07;;;2.15;;
48516;SDS011;34310;51.904;4.256;2022-10-26T07:00:52;6.63;;;2.00;;
48516;SDS011;34310;51.904;4.256;2022-10-26T07:03:21;3.60;;;1.80;;
48516;SDS011;34310;51.904;4.256;2022-10-26T07:05:48;5.88;;;2.10;;
48516;SDS011;34310;51.904;4.256;2022-10-26T07:08:16;5.50;;;1.90;;
48516;SDS011;34310;51.904;4.256;2022-10-26T07:10:45;5.35;;;1.92;;
48516;SDS011;34310;51.904;4.256;2022-10-26T07:13:12;7.55;;;2.25;;
48516;SDS011;34310;51.904;4.256;2022-10-26T07:15:40;8.88;;;1.90;;
48516;SDS011;34310;51.904;4.256;2022-10-26T07:18:08;4.75;;;2.10;;
48516;SDS011;34310;51.904;4.256;2022-10-26T07:20:36;6.40;;;2.20;;
48516;SDS011;34310;51.904;4.256;2022-10-26T07:23:05;7.70;;;2.17;;
48516;SDS011;34310;51.904;4.256;2022-10-26T07:25:36;7.93;;;1.88;;
48516;SDS011;34310;51.904;4.256;2022-10-26T07:28:06;4.20;;;1.80;;
48516;SDS011;34310;51.904;4.256;2022-10-26T07:30:36;5.25;;;2.40;;
48516;SDS011;34310;51.904;4.256;2022-10-26T07:33:11;4.88;;;2.00;;
48516;SDS011;34310;51.904;4.256;2022-10-26T07:35:39;3.17;;;1.90;;
48516;SDS011;34310;51.904;4.256;2022-10-26T07:38:07;4.10;;;1.80;;
48516;SDS011;34310;51.904;4.256;2022-10-26T07:40:35;4.30;;;1.95;;
48516;SDS011;34310;51.904;4.256;2022-10-26T07:43:03;4.75;;;2.08;;
48516;SDS011;34310;51.904;4.256;2022-10-26T07:45:30;6.00;;;2.00;;
48516;SDS011;34310;51.904;4.256;2022-10-26T07:47:57;6.00;;;2.08;;
48516;SDS011;34310;51.904;4.256;2022-10-26T07:50:25;6.50;;;2.13;;
48516;SDS011;34310;51.904;4.256;2022-10-26T07:52:52;6.13;;;1.88;;
48516;SDS011;34310;51.904;4.256;2022-10-26T07:55:20;8.40;;;1.92;;
48516;SDS011;34310;51.904;4.256;2022-10-26T07:57:47;4.95;;;2.10;;
48516;SDS011;34310;51.904;4.256;2022-10-26T08:00:19;7.68;;;2.28;;
48516;SDS011;34310;51.904;4.256;2022-10-26T08:02:47;7.32;;;2.78;;
48516;SDS011;34310;51.904;4.256;2022-10-26T08:05:14;4.15;;;2.00;;
48516;SDS011;34310;51.904;4.256;2022-10-26T08:07:43;5.85;;;2.13;;
48516;SDS011;34310;51.904;4.256;2022-10-26T08:10:11;5.35;;;1.88;;
48516;SDS011;34310;51.904;4.256;2022-10-26T08:12:40;8.02;;;2.10;;
48516;SDS011;34310;51.904;4.256;2022-10-26T08:15:08;6.13;;;1.90;;
48516;SDS011;34310;51.904;4.256;2022-10-26T08:17:36;4.35;;;1.90;;
48516;SDS011;34310;51.904;4.256;2022-10-26T08:20:03;5.07;;;2.13;;
48516;SDS011;34310;51.904;4.256;2022-10-26T08:22:31;3.72;;;1.77;;
48516;SDS011;34310;51.904;4.256;2022-10-26T08:24:58;4.18;;;1.95;;
48516;SDS011;34310;51.904;4.256;2022-10-26T08:27:25;4.15;;;1.85;;
48516;SDS011;34310;51.904;4.256;2022-10-26T08:29:53;7.20;;;2.20;;
48516;SDS011;34310;51.904;4.256;2022-10-26T08:32:20;5.32;;;2.10;;
48516;SDS011;34310;51.904;4.256;2022-10-26T08:34:48;3.47;;;1.55;;
48516;SDS011;34310;51.904;4.256;2022-10-26T08:37:15;2.72;;;1.50;;
48516;SDS011;34310;51.904;4.256;2022-10-26T08:39:42;2.90;;;1.90;;
48516;SDS011;34310;51.904;4.256;2022-10-26T08:42:11;3.88;;;1.85;;
48516;SDS011;34310;51.904;4.256;2022-10-26T08:44:49;4.43;;;1.85;;
48516;SDS011;34310;51.904;4.256;2022-10-26T08:47:31;4.40;;;2.03;;
48516;SDS011;34310;51.904;4.256;2022-10-26T08:50:09;5.10;;;2.17;;
48516;SDS011;34310;51.904;4.256;2022-10-26T08:52:50;4.10;;;1.50;;
48516;SDS011;34310;51.904;4.256;2022-10-26T08:55:28;3.75;;;1.88;;
48516;SDS011;34310;51.904;4.256;2022-10-26T08:58:15;4.40;;;2.00;;
48516;SDS011;34310;51.904;4.256;2022-10-26T09:00:46;4.05;;;1.75;;
48516;SDS011;34310;51.904;4.256;2022-10-26T09:03:16;4.10;;;1.83;;
48516;SDS011;34310;51.904;4.256;2022-10-26T09:08:37;2.85;;;1.40;;
48516;SDS011;34310;51.904;4.256;2022-10-26T09:14:04;4.68;;;1.50;;
48516;SDS011;34310;51.904;4.256;2022-10-26T09:17:01;3.53;;;1.80;;
48516;SDS011;34310;51.904;4.256;2022-10-26T09:23:16;5.10;;;1.80;;
48516;SDS011;34310;51.904;4.256;2022-10-26T09:25:53;4.55;;;1.60;;
48516;SDS011;34310;51.904;4.256;2022-10-26T09:28:26;3.95;;;1.52;;
48516;SDS011;34310;51.904;4.256;2022-10-26T09:30:58;4.05;;;1.40;;
48516;SDS011;34310;51.904;4.256;2022-10-26T09:33:28;3.13;;;1.70;;
48516;SDS011;34310;51.904;4.256;2022-10-26T09:36:05;3.20;;;1.30;;
48516;SDS011;34310;51.904;4.256;2022-10-26T09:38:49;2.30;;;1.45;;
48516;SDS011;34310;51.904;4.256;2022-10-26T09:46:34;4.70;;;;;
48516;SDS011;34310;51.904;4.256;2022-10-26T09:49:19;2.72;;;1.60;;
48516;SDS011;34310;51.904;4.256;2022-10-26T09:51:55;1.95;;;1.48;;
48516;SDS011;34310;51.904;4.256;2022-10-26T09:54:23;3.33;;;1.48;;
48516;SDS011;34310;51.904;4.256;2022-10-26T09:56:51;2.72;;;1.30;;
48516;SDS011;34310;51.904;4.256;2022-10-26T09:59:22;3.65;;;1.40;;
48516;SDS011;34310;51.904;4.256;2022-10-26T10:01:50;2.35;;;1.50;;
48516;SDS011;34310;51.904;4.256;2022-10-26T10:04:19;2.65;;;1.27;;
48516;SDS011;34310;51.904;4.256;2022-10-26T10:09:26;3.40;;;1.40;;
48516;SDS011;34310;51.904;4.256;2022-10-26T10:11:55;4.68;;;1.60;;
48516;SDS011;34310;51.904;4.256;2022-10-26T10:14:25;3.55;;;1.58;;
48516;SDS011;34310;51.904;4.256;2022-10-26T10:16:54;4.60;;;1.67;;
48516;SDS011;34310;51.904;4.256;2022-10-26T10:19:26;5.15;;;1.45;;
48516;SDS011;34310;51.904;4.256;2022-10-26T10:22:08;1.95;;;1.40;;
48516;SDS011;34310;51.904;4.256;2022-10-26T10:24:57;3.67;;;1.58;;
48516;SDS011;34310;51.904;4.256;2022-10-26T10:27:26;1.65;;;1.27;;
48516;SDS011;34310;51.904;4.256;2022-10-26T10:29:55;2.55;;;1.13;;
48516;SDS011;34310;51.904;4.256;2022-10-26T10:32:30;1.85;;;1.35;;
48516;SDS011;34310;51.904;4.256;2022-10-26T10:37:48;3.25;;;1.42;;
48516;SDS011;34310;51.904;4.256;2022-10-26T10:40:18;2.15;;;1.15;;
48516;SDS011;34310;51.904;4.256;2022-10-26T10:42:47;3.40;;;1.33;;
48516;SDS011;34310;51.904;4.256;2022-10-26T10:53:18;2.33;;;1.10;;
48516;SDS011;34310;51.904;4.256;2022-10-26T10:58:46;3.15;;;1.00;;
48516;SDS011;34310;51.904;4.256;2022-10-26T11:01:37;1.55;;;1.00;;
48516;SDS011;34310;51.904;4.256;2022-10-26T11:04:21;2.55;;;1.33;;
48516;SDS011;34310;51.904;4.256;2022-10-26T11:06:58;2.42;;;1.48;;
48516;SDS011;34310;51.904;4.256;2022-10-26T11:09:30;2.58;;;1.20;;
48516;SDS011;34310;51.904;4.256;2022-10-26T11:12:02;1.80;;;1.20;;
48516;SDS011;34310;51.904;4.256;2022-10-26T11:14:48;1.55;;;1.30;;
48516;SDS011;34310;51.904;4.256;2022-10-26T11:17:29;2.30;;;1.38;;
48516;SDS011;34310;51.904;4.256;2022-10-26T11:20:14;2.30;;;1.05;;
48516;SDS011;34310;51.904;4.256;2022-10-26T11:22:57;1.70;;;1.00;;
48516;SDS011;34310;51.904;4.256;2022-10-26T11:25:34;3.05;;;1.27;;
48516;SDS011;34310;51.904;4.256;2022-10-26T11:28:11;2.38;;;1.10;;
48516;SDS011;34310;51.904;4.256;2022-10-26T11:30:59;2.33;;;1.10;;
48516;SDS011;34310;51.904;4.256;2022-10-26T11:33:33;1.92;;;1.08;;
48516;SDS011;34310;51.904;4.256;2022-10-26T11:36:09;2.53;;;1.02;;
48516;SDS011;34310;51.904;4.256;2022-10-26T11:38:51;1.75;;;0.90;;
48516;SDS011;34310;51.904;4.256;2022-10-26T11:41:51;2.78;;;1.20;;
48516;SDS011;34310;51.904;4.256;2022-10-26T11:44:32;2.22;;;1.02;;
48516;SDS011;34310;51.904;4.256;2022-10-26T11:47:21;3.22;;;1.20;;
48516;SDS011;34310;51.904;4.256;2022-10-26T11:52:52;1.58;;;1.00;;
48516;SDS011;34310;51.904;4.256;2022-10-26T11:55:48;1.75;;;1.00;;
48516;SDS011;34310;51.904;4.256;2022-10-26T12:00:50;2.80;;;1.20;;
48516;SDS011;34310;51.904;4.256;2022-10-26T12:03:33;1.85;;;1.10;;
48516;SDS011;34310;51.904;4.256;2022-10-26T12:06:05;2.10;;;0.88;;
48516;SDS011;34310;51.904;4.256;2022-10-26T12:09:16;1.02;;;0.93;;
48516;SDS011;34310;51.904;4.256;2022-10-26T12:14:23;1.15;;;0.80;;
48516;SDS011;34310;51.904;4.256;2022-10-26T12:17:04;2.13;;;1.05;;
48516;SDS011;34310;51.904;4.256;2022-10-26T12:19:44;1.52;;;1.15;;
48516;SDS011;34310;51.904;4.256;2022-10-26T12:22:16;0.90;;;0.88;;
48516;SDS011;34310;51.904;4.256;2022-10-26T12:24:46;3.17;;;1.23;;
48516;SDS011;34310;51.904;4.256;2022-10-26T12:37:56;2.72;;;1.00;;
48516;SDS011;34310;51.904;4.256;2022-10-26T12:43:43;2.13;;;1.00;;
48516;SDS011;34310;51.904;4.256;2022-10-26T12:48:45;1.80;;;1.15;;
48516;SDS011;34310;51.904;4.256;2022-10-26T12:56:36;1.95;;;1.00;;
48516;SDS011;34310;51.904;4.256;2022-10-26T12:59:25;1.65;;;0.90;;
48516;SDS011;34310;51.904;4.256;2022-10-26T13:02:57;1.10;;;0.80;;
48516;SDS011;34310;51.904;4.256;2022-10-26T13:08:14;2.92;;;1.20;;
48516;SDS011;34310;51.904;4.256;2022-10-26T13:11:04;1.83;;;1.23;;
48516;SDS011;34310;51.904;4.256;2022-10-26T13:13:32;1.70;;;0.90;;
48516;SDS011;34310;51.904;4.256;2022-10-26T13:16:01;1.20;;;0.88;;
48516;SDS011;34310;51.904;4.256;2022-10-26T13:18:29;1.83;;;1.20;;
48516;SDS011;34310;51.904;4.256;2022-10-26T13:23:34;1.73;;;0.82;;
48516;SDS011;34310;51.904;4.256;2022-10-26T13:26:12;2.08;;;0.90;;
48516;SDS011;34310;51.904;4.256;2022-10-26T13:28:45;1.27;;;0.90;;
48516;SDS011;34310;51.904;4.256;2022-10-26T13:34:18;1.55;;;1.15;;
48516;SDS011;34310;51.904;4.256;2022-10-26T13:39:48;2.83;;;1.13;;
48516;SDS011;34310;51.904;4.256;2022-10-26T13:42:23;2.15;;;1.13;;
48516;SDS011;34310;51.904;4.256;2022-10-26T13:45:24;1.25;;;0.98;;
48516;SDS011;34310;51.904;4.256;2022-10-26T13:48:15;2.97;;;0.93;;
48516;SDS011;34310;51.904;4.256;2022-10-26T13:50:50;2.58;;;1.20;;
48516;SDS011;34310;51.904;4.256;2022-10-26T13:53:31;2.13;;;0.95;;
48516;SDS011;34310;51.904;4.256;2022-10-26T13:56:16;2.03;;;0.95;;
48516;SDS011;34310;51.904;4.256;2022-10-26T13:59:04;2.75;;;1.00;;
48516;SDS011;34310;51.904;4.256;2022-10-26T14:01:37;2.17;;;1.05;;
48516;SDS011;34310;51.904;4.256;2022-10-26T14:04:24;2.05;;;1.20;;
48516;SDS011;34310;51.904;4.256;2022-10-26T14:06:53;1.65;;;0.88;;
48516;SDS011;34310;51.904;4.256;2022-10-26T14:09:20;1.80;;;0.88;;
48516;SDS011;34310;51.904;4.256;2022-10-26T14:11:52;1.15;;;0.90;;
48516;SDS011;34310;51.904;4.256;2022-10-26T14:16:56;1.63;;;0.88;;
48516;SDS011;34310;51.904;4.256;2022-10-26T14:19:28;1.52;;;0.98;;
48516;SDS011;34310;51.904;4.256;2022-10-26T14:22:03;1.48;;;0.63;;
48516;SDS011;34310;51.904;4.256;2022-10-26T14:24:35;3.47;;;1.02;;
48516;SDS011;34310;51.904;4.256;2022-10-26T14:27:16;2.72;;;1.02;;
48516;SDS011;34310;51.904;4.256;2022-10-26T14:29:49;2.33;;;1.10;;
48516;SDS011;34310;51.904;4.256;2022-10-26T14:32:38;3.53;;;1.00;;
48516;SDS011;34310;51.904;4.256;2022-10-26T14:35:09;2.05;;;1.10;;
48516;SDS011;34310;51.904;4.256;2022-10-26T14:37:59;2.20;;;0.90;;
48516;SDS011;34310;51.904;4.256;2022-10-26T14:40:32;2.10;;;0.90;;
48516;SDS011;34310;51.904;4.256;2022-10-26T14:43:01;1.95;;;1.00;;
48516;SDS011;34310;51.904;4.256;2022-10-26T14:45:31;3.97;;;1.25;;
48516;SDS011;34310;51.904;4.256;2022-10-26T14:48:23;1.45;;;0.95;;
48516;SDS011;34310;51.904;4.256;2022-10-26T14:50:56;1.85;;;1.00;;
48516;SDS011;34310;51.904;4.256;2022-10-26T14:56:23;4.43;;;0.98;;
48516;SDS011;34310;51.904;4.256;2022-10-26T15:02:15;2.45;;;0.98;;
48516;SDS011;34310;51.904;4.256;2022-10-26T15:05:00;1.40;;;0.85;;
48516;SDS011;34310;51.904;4.256;2022-10-26T15:07:33;2.20;;;0.88;;
48516;SDS011;34310;51.904;4.256;2022-10-26T15:10:04;2.85;;;0.80;;
48516;SDS011;34310;51.904;4.256;2022-10-26T15:12:52;2.97;;;1.02;;
48516;SDS011;34310;51.904;4.256;2022-10-26T15:15:20;3.10;;;1.20;;
48516;SDS011;34310;51.904;4.256;2022-10-26T15:17:55;4.40;;;0.80;;
48516;SDS011;34310;51.904;4.256;2022-10-26T15:20:23;2.90;;;1.00;;
48516;SDS011;34310;51.904;4.256;2022-10-26T15:23:02;2.90;;;0.90;;
48516;SDS011;34310;51.904;4.256;2022-10-26T15:25:30;0.75;;;0.63;;
48516;SDS011;34310;51.904;4.256;2022-10-26T15:31:06;2.08;;;1.00;;
48516;SDS011;34310;51.904;4.256;2022-10-26T15:36:36;1.98;;;0.90;;
48516;SDS011;34310;51.904;4.256;2022-10-26T15:39:06;2.13;;;0.80;;
48516;SDS011;34310;51.904;4.256;2022-10-26T15:41:36;1.85;;;0.82;;
48516;SDS011;34310;51.904;4.256;2022-10-26T15:46:42;1.90;;;0.82;;
48516;SDS011;34310;51.904;4.256;2022-10-26T15:49:14;1.80;;;0.93;;
48516;SDS011;34310;51.904;4.256;2022-10-26T15:51:44;1.45;;;0.70;;
48516;SDS011;34310;51.904;4.256;2022-10-26T15:54:13;1.83;;;0.70;;
48516;SDS011;34310;51.904;4.256;2022-10-26T15:56:41;1.38;;;0.90;;
48516;SDS011;34310;51.904;4.256;2022-10-26T15:59:17;2.70;;;1.00;;
48516;SDS011;34310;51.904;4.256;2022-10-26T16:01:45;1.70;;;0.80;;
48516;SDS011;34310;51.904;4.256;2022-10-26T16:04:13;1.63;;;0.90;;
48516;SDS011;34310;51.904;4.256;2022-10-26T16:06:40;1.00;;;0.73;;
48516;SDS011;34310;51.904;4.256;2022-10-26T16:09:15;2.53;;;0.82;;
48516;SDS011;34310;51.904;4.256;2022-10-26T16:11:43;4.07;;;0.95;;
48516;SDS011;34310;51.904;4.256;2022-10-26T16:14:10;2.15;;;0.90;;
48516;SDS011;34310;51.904;4.256;2022-10-26T16:16:38;1.70;;;0.80;;
48516;SDS011;34310;51.904;4.256;2022-10-26T16:19:08;1.42;;;0.80;;
48516;SDS011;34310;51.904;4.256;2022-10-26T16:21:56;1.85;;;0.98;;
48516;SDS011;34310;51.904;4.256;2022-10-26T16:24:23;0.90;;;0.63;;
48516;SDS011;34310;51.904;4.256;2022-10-26T16:26:51;1.98;;;0.93;;
48516;SDS011;34310;51.904;4.256;2022-10-26T16:29:19;3.22;;;0.90;;
48516;SDS011;34310;51.904;4.256;2022-10-26T16:31:46;4.03;;;0.98;;
48516;SDS011;34310;51.904;4.256;2022-10-26T16:34:14;3.53;;;0.85;;
48516;SDS011;34310;51.904;4.256;2022-10-26T16:36:41;1.45;;;0.70;;
48516;SDS011;34310;51.904;4.256;2022-10-26T16:39:10;4.05;;;0.70;;
48516;SDS011;34310;51.904;4.256;2022-10-26T16:41:37;1.67;;;0.75;;
48516;SDS011;34310;51.904;4.256;2022-10-26T16:44:05;3.58;;;0.90;;
48516;SDS011;34310;51.904;4.256;2022-10-26T16:46:32;2.85;;;0.88;;
48516;SDS011;34310;51.904;4.256;2022-10-26T16:48:59;2.65;;;0.77;;
48516;SDS011;34310;51.904;4.256;2022-10-26T16:51:27;3.95;;;0.85;;
48516;SDS011;34310;51.904;4.256;2022-10-26T16:53:55;2.08;;;0.80;;
48516;SDS011;34310;51.904;4.256;2022-10-26T16:56:23;1.85;;;1.05;;
48516;SDS011;34310;51.904;4.256;2022-10-26T16:58:55;3.95;;;0.90;;
48516;SDS011;34310;51.904;4.256;2022-10-26T17:01:22;1.40;;;0.60;;
48516;SDS011;34310;51.904;4.256;2022-10-26T17:03:50;4.10;;;1.00;;
48516;SDS011;34310;51.904;4.256;2022-10-26T17:06:18;1.50;;;0.80;;
48516;SDS011;34310;51.904;4.256;2022-10-26T17:08:46;3.42;;;0.77;;
48516;SDS011;34310;51.904;4.256;2022-10-26T17:11:15;4.05;;;0.90;;
48516;SDS011;34310;51.904;4.256;2022-10-26T17:13:44;2.45;;;0.88;;
48516;SDS011;34310;51.904;4.256;2022-10-26T17:16:14;2.58;;;0.90;;
48516;SDS011;34310;51.904;4.256;2022-10-26T17:18:43;3.28;;;0.80;;
48516;SDS011;34310;51.904;4.256;2022-10-26T17:21:13;3.15;;;0.90;;
48516;SDS011;34310;51.904;4.256;2022-10-26T17:23:41;1.90;;;0.88;;
48516;SDS011;34310;51.904;4.256;2022-10-26T17:26:09;2.92;;;1.15;;
48516;SDS011;34310;51.904;4.256;2022-10-26T17:28:38;5.10;;;1.20;;
48516;SDS011;34310;51.904;4.256;2022-10-26T17:33:35;3.08;;;1.38;;